sensor_id;sensor_type;location;lat;lon;timestamp;temperature;humidity
65472;DHT22;52068;50.710;14.492;2023-04-15T00:01:54;24.65;38.11
65472;DHT22;52068;50.710;14.492;2023-04-15T00:04:19;24.67;38.12
65472;DHT22;52068;50.710;14.492;2023-04-15T00:06:53;24.68;38.10
65472;DHT22;52068;50.710;14.492;2023-04-15T00:09:19;24.65;38.12
65472;DHT22;52068;50.710;14.492;2023-04-15T00:11:44;24.67;38.12
65472;DHT22;52068;50.710;14.492;2023-04-15T00:14:11;24.70;38.11
65472;DHT22;52068;50.710;14.492;2023-04-15T00:16:36;24.67;38.11
65472;DHT22;52068;50.710;14.492;2023-04-15T00:19:01;24.70;38.12
65472;DHT22;52068;50.710;14.492;2023-04-15T00:21:27;24.74;38.07
65472;DHT22;52068;50.710;14.492;2023-04-15T00:23:53;24.74;37.96
65472;DHT22;52068;50.710;14.492;2023-04-15T00:26:18;24.73;38.02
65472;DHT22;52068;50.710;14.492;2023-04-15T00:28:44;24.74;37.93
65472;DHT22;52068;50.710;14.492;2023-04-15T00:31:10;24.75;37.97
65472;DHT22;52068;50.710;14.492;2023-04-15T00:33:35;24.75;37.97
65472;DHT22;52068;50.710;14.492;2023-04-15T00:36:00;24.77;37.83
65472;DHT22;52068;50.710;14.492;2023-04-15T00:38:26;24.77;37.97
65472;DHT22;52068;50.710;14.492;2023-04-15T00:40:52;24.77;37.95
65472;DHT22;52068;50.710;14.492;2023-04-15T00:43:17;24.78;37.90
65472;DHT22;52068;50.710;14.492;2023-04-15T00:45:43;24.77;37.90
65472;DHT22;52068;50.710;14.492;2023-04-15T00:48:08;24.77;37.91
65472;DHT22;52068;50.710;14.492;2023-04-15T00:50:34;24.77;37.86
65472;DHT22;52068;50.710;14.492;2023-04-15T00:52:59;24.75;37.90
65472;DHT22;52068;50.710;14.492;2023-04-15T00:55:25;24.74;37.96
65472;DHT22;52068;50.710;14.492;2023-04-15T00:57:50;24.75;38.04
65472;DHT22;52068;50.710;14.492;2023-04-15T01:00:16;24.77;38.03
65472;DHT22;52068;50.710;14.492;2023-04-15T01:02:42;24.77;38.01
65472;DHT22;52068;50.710;14.492;2023-04-15T01:05:07;24.74;38.06
65472;DHT22;52068;50.710;14.492;2023-04-15T01:07:33;24.75;38.05
65472;DHT22;52068;50.710;14.492;2023-04-15T01:09:58;24.74;38.00
65472;DHT22;52068;50.710;14.492;2023-04-15T01:12:25;24.77;38.00
65472;DHT22;52068;50.710;14.492;2023-04-15T01:14:51;24.77;37.96
65472;DHT22;52068;50.710;14.492;2023-04-15T01:17:17;24.80;37.93
65472;DHT22;52068;50.710;14.492;2023-04-15T01:19:43;24.81;37.97
65472;DHT22;52068;50.710;14.492;2023-04-15T01:22:08;24.81;37.95
65472;DHT22;52068;50.710;14.492;2023-04-15T01:24:34;24.80;37.96
65472;DHT22;52068;50.710;14.492;2023-04-15T01:26:59;24.81;37.95
65472;DHT22;52068;50.710;14.492;2023-04-15T01:29:25;24.78;38.01
65472;DHT22;52068;50.710;14.492;2023-04-15T01:31:51;24.84;37.97
65472;DHT22;52068;50.710;14.492;2023-04-15T01:34:17;24.81;37.97
65472;DHT22;52068;50.710;14.492;2023-04-15T01:36:43;24.80;37.98
65472;DHT22;52068;50.710;14.492;2023-04-15T01:39:08;24.81;37.94
65472;DHT22;52068;50.710;14.492;2023-04-15T01:41:34;24.81;37.96
65472;DHT22;52068;50.710;14.492;2023-04-15T01:43:59;24.81;37.91
65472;DHT22;52068;50.710;14.492;2023-04-15T01:46:25;24.85;37.92
65472;DHT22;52068;50.710;14.492;2023-04-15T01:48:50;24.87;37.91
65472;DHT22;52068;50.710;14.492;2023-04-15T01:51:16;24.85;38.00
65472;DHT22;52068;50.710;14.492;2023-04-15T01:53:41;24.84;37.88
65472;DHT22;52068;50.710;14.492;2023-04-15T01:56:06;24.85;37.97
65472;DHT22;52068;50.710;14.492;2023-04-15T01:58:32;24.87;37.97
65472;DHT22;52068;50.710;14.492;2023-04-15T02:00:57;24.88;38.02
65472;DHT22;52068;50.710;14.492;2023-04-15T02:03:23;24.91;37.96
65472;DHT22;52068;50.710;14.492;2023-04-15T02:05:49;24.88;37.96
65472;DHT22;52068;50.710;14.492;2023-04-15T02:08:15;24.87;37.91
65472;DHT22;52068;50.710;14.492;2023-04-15T02:10:40;24.90;38.05
65472;DHT22;52068;50.710;14.492;2023-04-15T02:13:05;24.90;37.94
65472;DHT22;52068;50.710;14.492;2023-04-15T02:15:31;24.91;37.91
65472;DHT22;52068;50.710;14.492;2023-04-15T02:17:57;24.91;37.92
65472;DHT22;52068;50.710;14.492;2023-04-15T02:20:24;24.94;37.84
65472;DHT22;52068;50.710;14.492;2023-04-15T02:22:50;24.92;37.92
65472;DHT22;52068;50.710;14.492;2023-04-15T02:25:16;24.95;37.80
65472;DHT22;52068;50.710;14.492;2023-04-15T02:27:41;24.96;37.72
65472;DHT22;52068;50.710;14.492;2023-04-15T02:30:08;24.96;37.81
65472;DHT22;52068;50.710;14.492;2023-04-15T02:32:34;24.95;37.68
65472;DHT22;52068;50.710;14.492;2023-04-15T02:35:03;24.96;37.69
65472;DHT22;52068;50.710;14.492;2023-04-15T02:37:29;24.94;37.66
65472;DHT22;52068;50.710;14.492;2023-04-15T02:39:55;24.94;37.74
65472;DHT22;52068;50.710;14.492;2023-04-15T02:42:21;24.94;37.76
65472;DHT22;52068;50.710;14.492;2023-04-15T02:44:46;24.95;37.78
65472;DHT22;52068;50.710;14.492;2023-04-15T02:47:11;24.95;37.74
65472;DHT22;52068;50.710;14.492;2023-04-15T02:49:37;24.94;37.89
65472;DHT22;52068;50.710;14.492;2023-04-15T02:52:02;24.96;37.88
65472;DHT22;52068;50.710;14.492;2023-04-15T02:54:27;24.99;37.88
65472;DHT22;52068;50.710;14.492;2023-04-15T02:56:53;25.01;37.81
65472;DHT22;52068;50.710;14.492;2023-04-15T02:59:20;24.99;37.78
65472;DHT22;52068;50.710;14.492;2023-04-15T03:01:45;25.04;37.77
65472;DHT22;52068;50.710;14.492;2023-04-15T03:04:11;25.01;37.73
65472;DHT22;52068;50.710;14.492;2023-04-15T03:06:37;25.03;37.67
65472;DHT22;52068;50.710;14.492;2023-04-15T03:09:02;25.01;37.63
65472;DHT22;52068;50.710;14.492;2023-04-15T03:11:28;25.01;37.73
65472;DHT22;52068;50.710;14.492;2023-04-15T03:13:53;24.99;37.80
65472;DHT22;52068;50.710;14.492;2023-04-15T03:16:19;24.98;37.77
65472;DHT22;52068;50.710;14.492;2023-04-15T03:18:44;24.96;37.82
65472;DHT22;52068;50.710;14.492;2023-04-15T03:21:09;24.95;37.82
65472;DHT22;52068;50.710;14.492;2023-04-15T03:23:34;24.96;37.89
65472;DHT22;52068;50.710;14.492;2023-04-15T03:26:03;24.98;37.82
65472;DHT22;52068;50.710;14.492;2023-04-15T03:28:29;24.98;37.91
65472;DHT22;52068;50.710;14.492;2023-04-15T03:30:54;24.95;37.92
65472;DHT22;52068;50.710;14.492;2023-04-15T03:33:20;24.94;37.91
65472;DHT22;52068;50.710;14.492;2023-04-15T03:35:45;24.96;37.93
65472;DHT22;52068;50.710;14.492;2023-04-15T03:38:10;24.98;37.92
65472;DHT22;52068;50.710;14.492;2023-04-15T03:40:36;24.99;37.81
65472;DHT22;52068;50.710;14.492;2023-04-15T03:43:01;24.98;37.81
65472;DHT22;52068;50.710;14.492;2023-04-15T03:45:26;24.99;37.88
65472;DHT22;52068;50.710;14.492;2023-04-15T03:47:52;24.99;37.84
65472;DHT22;52068;50.710;14.492;2023-04-15T03:50:17;25.01;37.78
65472;DHT22;52068;50.710;14.492;2023-04-15T03:52:43;24.99;37.87
65472;DHT22;52068;50.710;14.492;2023-04-15T03:55:08;24.99;37.84
65472;DHT22;52068;50.710;14.492;2023-04-15T03:57:33;25.01;37.83
65472;DHT22;52068;50.710;14.492;2023-04-15T04:00:02;25.03;37.80
65472;DHT22;52068;50.710;14.492;2023-04-15T04:02:28;25.03;37.83
65472;DHT22;52068;50.710;14.492;2023-04-15T04:04:53;25.04;37.85
65472;DHT22;52068;50.710;14.492;2023-04-15T04:07:18;25.03;37.75
65472;DHT22;52068;50.710;14.492;2023-04-15T04:09:43;25.01;37.76
65472;DHT22;52068;50.710;14.492;2023-04-15T04:12:09;25.05;37.74
65472;DHT22;52068;50.710;14.492;2023-04-15T04:14:34;25.03;37.70
65472;DHT22;52068;50.710;14.492;2023-04-15T04:17:00;25.05;37.78
65472;DHT22;52068;50.710;14.492;2023-04-15T04:19:25;25.05;37.79
65472;DHT22;52068;50.710;14.492;2023-04-15T04:21:50;25.07;37.73
65472;DHT22;52068;50.710;14.492;2023-04-15T04:24:16;25.07;37.75
65472;DHT22;52068;50.710;14.492;2023-04-15T04:26:41;25.07;37.73
65472;DHT22;52068;50.710;14.492;2023-04-15T04:29:06;25.08;37.69
65472;DHT22;52068;50.710;14.492;2023-04-15T04:31:32;25.08;37.69
65472;DHT22;52068;50.710;14.492;2023-04-15T04:33:57;25.10;37.69
65472;DHT22;52068;50.710;14.492;2023-04-15T04:36:22;25.08;37.69
65472;DHT22;52068;50.710;14.492;2023-04-15T04:38:47;25.10;37.66
65472;DHT22;52068;50.710;14.492;2023-04-15T04:41:13;25.08;37.64
65472;DHT22;52068;50.710;14.492;2023-04-15T04:43:38;24.99;37.72
65472;DHT22;52068;50.710;14.492;2023-04-15T04:46:03;24.92;37.87
65472;DHT22;52068;50.710;14.492;2023-04-15T04:48:28;24.85;37.92
65472;DHT22;52068;50.710;14.492;2023-04-15T04:50:54;24.75;38.26
65472;DHT22;52068;50.710;14.492;2023-04-15T04:53:19;24.73;38.45
65472;DHT22;52068;50.710;14.492;2023-04-15T04:55:45;24.71;38.40
65472;DHT22;52068;50.710;14.492;2023-04-15T04:58:10;24.78;38.21
65472;DHT22;52068;50.710;14.492;2023-04-15T05:00:36;24.80;38.21
65472;DHT22;52068;50.710;14.492;2023-04-15T05:03:02;24.87;38.13
65472;DHT22;52068;50.710;14.492;2023-04-15T05:05:28;24.91;38.09
65472;DHT22;52068;50.710;14.492;2023-04-15T05:07:53;24.96;38.02
65472;DHT22;52068;50.710;14.492;2023-04-15T05:10:18;25.01;37.93
65472;DHT22;52068;50.710;14.492;2023-04-15T05:12:43;25.04;37.84
65472;DHT22;52068;50.710;14.492;2023-04-15T05:15:09;25.08;37.86
65472;DHT22;52068;50.710;14.492;2023-04-15T05:17:34;25.12;37.73
65472;DHT22;52068;50.710;14.492;2023-04-15T05:20:00;25.10;37.63
65472;DHT22;52068;50.710;14.492;2023-04-15T05:22:26;25.14;37.55
65472;DHT22;52068;50.710;14.492;2023-04-15T05:24:51;25.15;37.60
65472;DHT22;52068;50.710;14.492;2023-04-15T05:27:16;25.18;37.56
65472;DHT22;52068;50.710;14.492;2023-04-15T05:29:43;25.16;37.51
65472;DHT22;52068;50.710;14.492;2023-04-15T05:32:08;25.19;37.47
65472;DHT22;52068;50.710;14.492;2023-04-15T05:34:33;25.18;37.50
65472;DHT22;52068;50.710;14.492;2023-04-15T05:36:59;25.19;37.64
65472;DHT22;52068;50.710;14.492;2023-04-15T05:39:24;25.22;37.55
65472;DHT22;52068;50.710;14.492;2023-04-15T05:41:50;25.22;37.49
65472;DHT22;52068;50.710;14.492;2023-04-15T05:44:16;25.26;37.43
65472;DHT22;52068;50.710;14.492;2023-04-15T05:46:41;25.26;37.33
65472;DHT22;52068;50.710;14.492;2023-04-15T05:49:07;25.26;37.30
65472;DHT22;52068;50.710;14.492;2023-04-15T05:51:32;25.26;37.45
65472;DHT22;52068;50.710;14.492;2023-04-15T05:53:57;25.28;37.42
65472;DHT22;52068;50.710;14.492;2023-04-15T05:56:23;25.26;37.27
65472;DHT22;52068;50.710;14.492;2023-04-15T05:58:50;25.28;37.36
65472;DHT22;52068;50.710;14.492;2023-04-15T06:01:16;25.31;37.36
65472;DHT22;52068;50.710;14.492;2023-04-15T06:03:41;25.32;37.26
65472;DHT22;52068;50.710;14.492;2023-04-15T06:06:06;25.31;37.20
65472;DHT22;52068;50.710;14.492;2023-04-15T06:08:32;25.31;37.30
65472;DHT22;52068;50.710;14.492;2023-04-15T06:10:57;25.34;37.31
65472;DHT22;52068;50.710;14.492;2023-04-15T06:13:23;25.36;37.22
65472;DHT22;52068;50.710;14.492;2023-04-15T06:15:48;25.35;37.27
65472;DHT22;52068;50.710;14.492;2023-04-15T06:18:13;25.36;37.26
65472;DHT22;52068;50.710;14.492;2023-04-15T06:20:38;25.41;37.24
65472;DHT22;52068;50.710;14.492;2023-04-15T06:23:04;25.38;37.15
65472;DHT22;52068;50.710;14.492;2023-04-15T06:25:29;25.38;37.21
65472;DHT22;52068;50.710;14.492;2023-04-15T06:27:54;25.39;37.22
65472;DHT22;52068;50.710;14.492;2023-04-15T06:30:20;25.41;37.21
65472;DHT22;52068;50.710;14.492;2023-04-15T06:32:45;25.38;37.18
65472;DHT22;52068;50.710;14.492;2023-04-15T06:35:11;25.38;37.23
65472;DHT22;52068;50.710;14.492;2023-04-15T06:37:36;25.42;37.25
65472;DHT22;52068;50.710;14.492;2023-04-15T06:40:02;25.42;37.42
65472;DHT22;52068;50.710;14.492;2023-04-15T06:42:29;25.42;37.45
65472;DHT22;52068;50.710;14.492;2023-04-15T06:44:54;25.46;37.48
65472;DHT22;52068;50.710;14.492;2023-04-15T06:47:20;25.46;37.40
65472;DHT22;52068;50.710;14.492;2023-04-15T06:49:45;25.46;37.24
65472;DHT22;52068;50.710;14.492;2023-04-15T06:52:11;25.46;37.17
65472;DHT22;52068;50.710;14.492;2023-04-15T06:54:36;25.46;36.97
65472;DHT22;52068;50.710;14.492;2023-04-15T06:57:02;25.46;36.99
65472;DHT22;52068;50.710;14.492;2023-04-15T06:59:27;25.46;36.98
65472;DHT22;52068;50.710;14.492;2023-04-15T07:01:52;25.47;36.95
65472;DHT22;52068;50.710;14.492;2023-04-15T07:04:18;25.47;36.92
65472;DHT22;52068;50.710;14.492;2023-04-15T07:06:44;25.45;36.86
65472;DHT22;52068;50.710;14.492;2023-04-15T07:09:10;25.47;36.90
65472;DHT22;52068;50.710;14.492;2023-04-15T07:11:35;25.49;36.81
65472;DHT22;52068;50.710;14.492;2023-04-15T07:14:00;25.49;36.71
65472;DHT22;52068;50.710;14.492;2023-04-15T07:16:26;25.47;36.80
65472;DHT22;52068;50.710;14.492;2023-04-15T07:18:51;25.52;36.74
65472;DHT22;52068;50.710;14.492;2023-04-15T07:21:16;25.49;36.71
65472;DHT22;52068;50.710;14.492;2023-04-15T07:23:42;25.47;36.64
65472;DHT22;52068;50.710;14.492;2023-04-15T07:26:08;25.49;36.63
65472;DHT22;52068;50.710;14.492;2023-04-15T07:28:33;25.49;36.56
65472;DHT22;52068;50.710;14.492;2023-04-15T07:30:58;25.50;36.49
65472;DHT22;52068;50.710;14.492;2023-04-15T07:33:24;25.50;36.50
65472;DHT22;52068;50.710;14.492;2023-04-15T07:35:49;25.50;36.46
65472;DHT22;52068;50.710;14.492;2023-04-15T07:38:14;25.49;36.41
65472;DHT22;52068;50.710;14.492;2023-04-15T07:40:39;25.52;36.37
65472;DHT22;52068;50.710;14.492;2023-04-15T07:43:06;25.55;36.25
65472;DHT22;52068;50.710;14.492;2023-04-15T07:45:31;25.55;36.27
65472;DHT22;52068;50.710;14.492;2023-04-15T07:47:56;25.55;36.16
65472;DHT22;52068;50.710;14.492;2023-04-15T07:50:22;25.56;36.06
65472;DHT22;52068;50.710;14.492;2023-04-15T07:52:48;25.59;35.93
65472;DHT22;52068;50.710;14.492;2023-04-15T07:55:13;25.58;35.98
65472;DHT22;52068;50.710;14.492;2023-04-15T07:57:40;25.55;35.90
65472;DHT22;52068;50.710;14.492;2023-04-15T08:00:06;25.56;35.99
65472;DHT22;52068;50.710;14.492;2023-04-15T08:02:32;25.58;36.03
65472;DHT22;52068;50.710;14.492;2023-04-15T08:04:57;25.58;36.06
65472;DHT22;52068;50.710;14.492;2023-04-15T08:07:23;25.61;36.03
65472;DHT22;52068;50.710;14.492;2023-04-15T08:09:49;25.59;36.04
65472;DHT22;52068;50.710;14.492;2023-04-15T08:12:14;25.61;36.02
65472;DHT22;52068;50.710;14.492;2023-04-15T08:14:40;25.63;35.97
65472;DHT22;52068;50.710;14.492;2023-04-15T08:17:05;25.66;35.93
65472;DHT22;52068;50.710;14.492;2023-04-15T08:19:31;25.65;35.95
65472;DHT22;52068;50.710;14.492;2023-04-15T08:21:56;25.66;35.91
65472;DHT22;52068;50.710;14.492;2023-04-15T08:24:22;25.63;35.87
65472;DHT22;52068;50.710;14.492;2023-04-15T08:26:48;25.67;35.82
65472;DHT22;52068;50.710;14.492;2023-04-15T08:29:13;25.67;35.84
65472;DHT22;52068;50.710;14.492;2023-04-15T08:31:38;25.67;35.82
65472;DHT22;52068;50.710;14.492;2023-04-15T08:34:04;25.65;35.85
65472;DHT22;52068;50.710;14.492;2023-04-15T08:36:29;25.70;35.82
65472;DHT22;52068;50.710;14.492;2023-04-15T08:38:56;25.67;35.76
65472;DHT22;52068;50.710;14.492;2023-04-15T08:41:22;25.67;35.75
65472;DHT22;52068;50.710;14.492;2023-04-15T08:43:57;25.69;35.69
65472;DHT22;52068;50.710;14.492;2023-04-15T08:46:23;25.70;35.68
65472;DHT22;52068;50.710;14.492;2023-04-15T08:48:48;25.70;35.62
65472;DHT22;52068;50.710;14.492;2023-04-15T08:51:15;25.69;35.62
65472;DHT22;52068;50.710;14.492;2023-04-15T08:53:43;25.70;35.62
65472;DHT22;52068;50.710;14.492;2023-04-15T08:56:10;25.67;35.55
65472;DHT22;52068;50.710;14.492;2023-04-15T08:58:36;25.67;35.66
65472;DHT22;52068;50.710;14.492;2023-04-15T09:01:02;25.69;35.73
65472;DHT22;52068;50.710;14.492;2023-04-15T09:03:27;25.70;35.72
65472;DHT22;52068;50.710;14.492;2023-04-15T09:05:52;25.72;35.69
65472;DHT22;52068;50.710;14.492;2023-04-15T09:08:18;25.67;35.75
65472;DHT22;52068;50.710;14.492;2023-04-15T09:10:43;25.69;35.79
65472;DHT22;52068;50.710;14.492;2023-04-15T09:13:09;25.69;35.76
65472;DHT22;52068;50.710;14.492;2023-04-15T09:15:35;25.67;35.86
65472;DHT22;52068;50.710;14.492;2023-04-15T09:18:02;25.69;35.80
65472;DHT22;52068;50.710;14.492;2023-04-15T09:20:27;25.69;35.79
65472;DHT22;52068;50.710;14.492;2023-04-15T09:22:53;25.72;35.81
65472;DHT22;52068;50.710;14.492;2023-04-15T09:27:50;25.70;35.76
65472;DHT22;52068;50.710;14.492;2023-04-15T09:30:16;25.70;35.78
65472;DHT22;52068;50.710;14.492;2023-04-15T09:35:19;25.72;35.76
65472;DHT22;52068;50.710;14.492;2023-04-15T09:37:44;25.70;35.76
65472;DHT22;52068;50.710;14.492;2023-04-15T09:40:10;25.73;35.79
65472;DHT22;52068;50.710;14.492;2023-04-15T09:42:36;25.70;35.79
65472;DHT22;52068;50.710;14.492;2023-04-15T09:45:10;25.62;35.65
65472;DHT22;52068;50.710;14.492;2023-04-15T09:47:36;25.56;35.71
65472;DHT22;52068;50.710;14.492;2023-04-15T09:50:01;25.42;35.74
65472;DHT22;52068;50.710;14.492;2023-04-15T09:52:27;25.32;36.15
65472;DHT22;52068;50.710;14.492;2023-04-15T09:54:53;25.26;36.63
65472;DHT22;52068;50.710;14.492;2023-04-15T09:57:20;25.24;36.69
65472;DHT22;52068;50.710;14.492;2023-04-15T09:59:46;25.28;36.58
65472;DHT22;52068;50.710;14.492;2023-04-15T10:02:11;25.32;36.64
65472;DHT22;52068;50.710;14.492;2023-04-15T10:04:39;25.35;36.60
65472;DHT22;52068;50.710;14.492;2023-04-15T10:07:04;25.41;36.55
65472;DHT22;52068;50.710;14.492;2023-04-15T10:09:30;25.41;36.47
65472;DHT22;52068;50.710;14.492;2023-04-15T10:11:57;25.38;36.19
65472;DHT22;52068;50.710;14.492;2023-04-15T10:14:23;25.28;36.39
65472;DHT22;52068;50.710;14.492;2023-04-15T10:16:50;25.25;36.48
65472;DHT22;52068;50.710;14.492;2023-04-15T10:19:17;25.16;36.77
65472;DHT22;52068;50.710;14.492;2023-04-15T10:21:43;25.12;37.08
65472;DHT22;52068;50.710;14.492;2023-04-15T10:24:09;25.14;36.96
65472;DHT22;52068;50.710;14.492;2023-04-15T10:26:34;25.16;36.89
65472;DHT22;52068;50.710;14.492;2023-04-15T10:29:00;25.21;36.86
65472;DHT22;52068;50.710;14.492;2023-04-15T10:31:26;25.24;36.56
65472;DHT22;52068;50.710;14.492;2023-04-15T10:33:52;25.29;36.69
65472;DHT22;52068;50.710;14.492;2023-04-15T10:36:18;25.34;36.82
65472;DHT22;52068;50.710;14.492;2023-04-15T10:38:43;25.38;36.58
65472;DHT22;52068;50.710;14.492;2023-04-15T10:43:38;25.28;36.20
65472;DHT22;52068;50.710;14.492;2023-04-15T10:46:04;25.25;36.18
65472;DHT22;52068;50.710;14.492;2023-04-15T10:48:30;25.14;36.31
65472;DHT22;52068;50.710;14.492;2023-04-15T10:50:55;25.07;36.88
65472;DHT22;52068;50.710;14.492;2023-04-15T10:53:27;25.11;36.97
65472;DHT22;52068;50.710;14.492;2023-04-15T10:55:53;25.16;36.95
65472;DHT22;52068;50.710;14.492;2023-04-15T10:58:18;25.22;36.84
65472;DHT22;52068;50.710;14.492;2023-04-15T11:00:51;25.28;36.58
65472;DHT22;52068;50.710;14.492;2023-04-15T11:03:20;25.32;36.55
65472;DHT22;52068;50.710;14.492;2023-04-15T11:05:58;25.36;36.53
65472;DHT22;52068;50.710;14.492;2023-04-15T11:08:51;25.34;36.25
65472;DHT22;52068;50.710;14.492;2023-04-15T11:11:08;25.28;36.34
65472;DHT22;52068;50.710;14.492;2023-04-15T11:13:34;25.21;36.38
65472;DHT22;52068;50.710;14.492;2023-04-15T11:16:00;25.11;36.80
65472;DHT22;52068;50.710;14.492;2023-04-15T11:18:27;25.05;37.02
65472;DHT22;52068;50.710;14.492;2023-04-15T11:20:53;25.05;37.16
65472;DHT22;52068;50.710;14.492;2023-04-15T11:23:30;25.10;37.09
65472;DHT22;52068;50.710;14.492;2023-04-15T11:25:56;25.18;36.95
65472;DHT22;52068;50.710;14.492;2023-04-15T11:28:24;25.26;36.85
65472;DHT22;52068;50.710;14.492;2023-04-15T11:30:49;25.32;36.74
65472;DHT22;52068;50.710;14.492;2023-04-15T11:33:15;25.39;36.59
65472;DHT22;52068;50.710;14.492;2023-04-15T11:35:40;25.43;36.40
65472;DHT22;52068;50.710;14.492;2023-04-15T11:38:10;25.50;36.49
65472;DHT22;52068;50.710;14.492;2023-04-15T11:40:38;25.50;36.59
65472;DHT22;52068;50.710;14.492;2023-04-15T11:45:32;25.62;36.53
65472;DHT22;52068;50.710;14.492;2023-04-15T11:48:04;25.65;36.50
65472;DHT22;52068;50.710;14.492;2023-04-15T11:50:29;25.65;36.57
65472;DHT22;52068;50.710;14.492;2023-04-15T11:52:58;25.70;36.56
65472;DHT22;52068;50.710;14.492;2023-04-15T11:55:24;25.73;36.51
65472;DHT22;52068;50.710;14.492;2023-04-15T11:58:04;25.77;36.40
65472;DHT22;52068;50.710;14.492;2023-04-15T12:00:31;25.80;36.39
65472;DHT22;52068;50.710;14.492;2023-04-15T12:03:39;25.79;36.38
65472;DHT22;52068;50.710;14.492;2023-04-15T12:13:52;25.87;36.38
65472;DHT22;52068;50.710;14.492;2023-04-15T12:16:21;25.79;36.46
65472;DHT22;52068;50.710;14.492;2023-04-15T12:18:47;25.72;36.51
65472;DHT22;52068;50.710;14.492;2023-04-15T12:21:14;25.65;36.44
65472;DHT22;52068;50.710;14.492;2023-04-15T12:23:50;25.58;36.55
65472;DHT22;52068;50.710;14.492;2023-04-15T12:26:16;25.49;36.71
65472;DHT22;52068;50.710;14.492;2023-04-15T12:28:42;25.45;36.70
65472;DHT22;52068;50.710;14.492;2023-04-15T12:31:10;25.38;36.70
65472;DHT22;52068;50.710;14.492;2023-04-15T12:33:36;25.32;36.99
65472;DHT22;52068;50.710;14.492;2023-04-15T12:36:01;25.31;37.13
65472;DHT22;52068;50.710;14.492;2023-04-15T12:38:27;25.22;37.28
65472;DHT22;52068;50.710;14.492;2023-04-15T12:40:52;25.22;37.33
65472;DHT22;52068;50.710;14.492;2023-04-15T12:43:18;25.19;37.44
65472;DHT22;52068;50.710;14.492;2023-04-15T12:45:43;25.14;37.52
65472;DHT22;52068;50.710;14.492;2023-04-15T12:48:08;25.15;37.62
65472;DHT22;52068;50.710;14.492;2023-04-15T12:50:34;25.16;37.53
65472;DHT22;52068;50.710;14.492;2023-04-15T12:52:59;25.18;37.51
65472;DHT22;52068;50.710;14.492;2023-04-15T12:55:25;25.24;37.39
65472;DHT22;52068;50.710;14.492;2023-04-15T12:57:50;25.18;37.29
65472;DHT22;52068;50.710;14.492;2023-04-15T13:00:16;25.19;37.19
65472;DHT22;52068;50.710;14.492;2023-04-15T13:02:42;25.16;37.19
65472;DHT22;52068;50.710;14.492;2023-04-15T13:05:08;25.14;37.14
65472;DHT22;52068;50.710;14.492;2023-04-15T13:07:33;25.08;36.72
65472;DHT22;52068;50.710;14.492;2023-04-15T13:09:58;25.10;36.74
65472;DHT22;52068;50.710;14.492;2023-04-15T13:12:23;25.10;37.13
65472;DHT22;52068;50.710;14.492;2023-04-15T13:14:49;25.03;37.39
65472;DHT22;52068;50.710;14.492;2023-04-15T13:17:14;25.05;37.51
65472;DHT22;52068;50.710;14.492;2023-04-15T13:19:41;25.05;37.55
65472;DHT22;52068;50.710;14.492;2023-04-15T13:22:06;25.05;37.37
65472;DHT22;52068;50.710;14.492;2023-04-15T13:24:32;25.10;37.44
65472;DHT22;52068;50.710;14.492;2023-04-15T13:26:58;25.16;36.95
65472;DHT22;52068;50.710;14.492;2023-04-15T13:29:23;25.25;36.55
65472;DHT22;52068;50.710;14.492;2023-04-15T13:31:48;25.29;36.29
65472;DHT22;52068;50.710;14.492;2023-04-15T13:34:13;25.36;36.73
65472;DHT22;52068;50.710;14.492;2023-04-15T13:36:39;25.49;36.80
65472;DHT22;52068;50.710;14.492;2023-04-15T13:39:04;25.59;36.55
65472;DHT22;52068;50.710;14.492;2023-04-15T13:41:30;25.59;36.54
65472;DHT22;52068;50.710;14.492;2023-04-15T13:43:56;25.53;36.59
65472;DHT22;52068;50.710;14.492;2023-04-15T13:46:22;25.56;35.78
65472;DHT22;52068;50.710;14.492;2023-04-15T13:48:47;25.52;36.11
65472;DHT22;52068;50.710;14.492;2023-04-15T13:51:13;25.46;36.33
65472;DHT22;52068;50.710;14.492;2023-04-15T13:53:38;25.45;36.41
65472;DHT22;52068;50.710;14.492;2023-04-15T13:56:03;25.42;36.44
65472;DHT22;52068;50.710;14.492;2023-04-15T13:58:28;25.39;36.14
65472;DHT22;52068;50.710;14.492;2023-04-15T14:00:54;25.39;36.25
65472;DHT22;52068;50.710;14.492;2023-04-15T14:03:20;25.34;36.63
65472;DHT22;52068;50.710;14.492;2023-04-15T14:05:45;25.31;36.96
65472;DHT22;52068;50.710;14.492;2023-04-15T14:08:10;25.31;37.07
65472;DHT22;52068;50.710;14.492;2023-04-15T14:10:35;25.28;37.15
65472;DHT22;52068;50.710;14.492;2023-04-15T14:13:01;25.26;37.24
65472;DHT22;52068;50.710;14.492;2023-04-15T14:15:26;25.22;37.29
65472;DHT22;52068;50.710;14.492;2023-04-15T14:17:51;25.24;37.40
65472;DHT22;52068;50.710;14.492;2023-04-15T14:20:17;25.22;37.51
65472;DHT22;52068;50.710;14.492;2023-04-15T14:22:42;25.29;37.32
65472;DHT22;52068;50.710;14.492;2023-04-15T14:25:07;25.31;37.24
65472;DHT22;52068;50.710;14.492;2023-04-15T14:27:32;25.34;37.13
65472;DHT22;52068;50.710;14.492;2023-04-15T14:29:58;25.28;37.05
65472;DHT22;52068;50.710;14.492;2023-04-15T14:32:24;25.28;36.92
65472;DHT22;52068;50.710;14.492;2023-04-15T14:34:50;25.21;37.01
65472;DHT22;52068;50.710;14.492;2023-04-15T14:37:15;25.18;37.16
65472;DHT22;52068;50.710;14.492;2023-04-15T14:39:40;25.14;37.13
65472;DHT22;52068;50.710;14.492;2023-04-15T14:42:06;25.11;37.28
65472;DHT22;52068;50.710;14.492;2023-04-15T14:44:31;25.10;37.26
65472;DHT22;52068;50.710;14.492;2023-04-15T14:46:56;25.08;37.41
65472;DHT22;52068;50.710;14.492;2023-04-15T14:49:22;25.05;37.16
65472;DHT22;52068;50.710;14.492;2023-04-15T14:51:47;25.03;36.85
65472;DHT22;52068;50.710;14.492;2023-04-15T14:54:12;24.99;36.93
65472;DHT22;52068;50.710;14.492;2023-04-15T14:56:38;24.95;36.81
65472;DHT22;52068;50.710;14.492;2023-04-15T14:59:03;24.94;36.77
65472;DHT22;52068;50.710;14.492;2023-04-15T15:01:28;24.94;36.89
65472;DHT22;52068;50.710;14.492;2023-04-15T15:03:54;24.88;37.35
65472;DHT22;52068;50.710;14.492;2023-04-15T15:06:19;24.92;37.35
65472;DHT22;52068;50.710;14.492;2023-04-15T15:08:45;24.98;37.29
65472;DHT22;52068;50.710;14.492;2023-04-15T15:11:10;24.96;36.97
65472;DHT22;52068;50.710;14.492;2023-04-15T15:13:36;24.98;37.07
65472;DHT22;52068;50.710;14.492;2023-04-15T15:16:01;24.98;37.04
65472;DHT22;52068;50.710;14.492;2023-04-15T15:18:26;24.95;37.11
65472;DHT22;52068;50.710;14.492;2023-04-15T15:20:51;24.90;37.05
65472;DHT22;52068;50.710;14.492;2023-04-15T15:23:17;24.87;37.00
65472;DHT22;52068;50.710;14.492;2023-04-15T15:25:42;24.84;37.07